Flight Track Log - Related Links

Times and Time Zones

All times are in EST time to prevent confusion due to time zone crossing. See the FFT797 flight status page for this flight to view local times or setup timezone preferences in your user account.

Time Position Orientation Groundspeed Altitude Reporting Facility
EST Latitude Longitude Course Direction KTS MPH feet Rate Location/Type
Tue 09:09:26 PM 39.9167 -104.7333 281° West 208 239 7,200  Level Denver TRACON
Tue 09:10:27 PM 39.9333 -104.8333 282° West 274 315 9,000 1,818 Climbing Denver TRACON
Tue 09:11:05 PM 39.9411 -104.8919 280° West 273 314 10,200 2,280 Climbing Denver Center
Tue 09:12:07 PM 39.9489 -105.0103 275° West 310 357 12,800 2,565 Climbing Denver Center
Tue 09:13:09 PM 39.9611 -105.1133 279° West 291 335 15,500 2,274 Climbing Denver Center
Tue 09:14:00 PM 39.9053 -105.3370 281° West  Level FlightAware Approximate
Tue 09:14:11 PM 39.9736 -105.2192 279° West 295 339 17,500  Level Denver Center
Tue 09:15:12 PM 39.9867 -105.3389 278° West 309 356 18,900 1,561 Climbing Denver Center
Tue 09:16:14 PM 39.9817 -105.4558 267° West 322 371 20,700 1,355 Climbing Denver Center
Tue 09:17:16 PM 39.9775 -105.5622 267° West 320 368 21,700 1,452 Climbing Denver Center
Tue 09:18:18 PM 39.9722 -105.7131 267° West 348 400 23,700 1,317 Climbing Denver Center
Tue 09:19:19 PM 39.9708 -105.8369 269° West 344 396 24,400 537 Climbing Denver Center
Tue 09:20:21 PM 39.9772 -105.9725 274° West 372 428 24,800 339 Climbing Denver Center
Tue 09:21:23 PM 39.9847 -106.1189 274° West 401 461 25,100 242 Climbing Denver Center
Tue 09:22:25 PM 39.9942 -106.2725 275° West 426 490 25,300 829 Climbing Denver Center
Tue 09:23:26 PM 40.0006 -106.4267 273° West 428 493 26,800 1,415 Climbing Denver Center
Tue 09:24:28 PM 40.0103 -106.5897 275° West 423 487 28,200 1,403 Climbing Denver Center
Tue 09:25:30 PM 40.0189 -106.7567 274° West 416 479 29,700 1,122 Climbing Denver Center
Tue 09:26:31 PM 40.0256 -106.8969 274° West 409 471 30,500 780 Climbing Denver Center
Tue 09:27:33 PM 40.0633 -107.0253 291° West 399 459 31,300 919 Climbing Denver Center
Tue 09:28:35 PM 40.1258 -107.1636 301° West 396 456 32,400 927 Climbing Denver Center
Tue 09:29:36 PM 40.1778 -107.2819 300° West 394 453 33,200 732 Climbing Denver Center
Tue 09:30:38 PM 40.2372 -107.4181 300° West 389 448 33,900 629 Climbing Denver Center
Tue 09:31:40 PM 40.2875 -107.5336 300° West 386 444 34,500 537 Climbing Denver Center
Tue 09:32:41 PM 40.3461 -107.6686 300° West 383 441 35,000 488 Climbing Denver Center
Tue 09:33:43 PM 40.3978 -107.7864 300° West 388 447 35,500 484 Climbing Denver Center
Tue 09:34:45 PM 40.4569 -107.9219 300° West 386 444 36,000 244 Climbing Denver Center
Tue 09:35:46 PM 40.5081 -108.0414 299° West 391 450 36,000  Level Denver Center
Tue 09:36:48 PM 40.5586 -108.1569 300° West 385 443 36,000  Level Denver Center
Tue 09:37:50 PM 40.6161 -108.2922 299° West 383 441 36,000  Level Denver Center
Tue 09:38:51 PM 40.6667 -108.4078 300° West 382 440 36,000  Level Denver Center
Tue 09:39:53 PM 40.7247 -108.5456 299° West 384 442 36,000  Level Denver Center
Tue 09:40:55 PM 40.7761 -108.6672 299° West 386 444 36,000  Level Denver Center
Tue 09:41:56 PM 40.8269 -108.7886 299° West 392 451 36,000  Level Denver Center
Tue 09:42:58 PM 40.8858 -108.9300 299° West 393 452 36,000  Level Denver Center
Tue 09:43:42 PM 40.9203 -109.0114 299° West 397 457 36,000  Level Salt Lake Center
Tue 09:44:43 PM 40.9800 -109.1553 299° West 397 457 36,000  Level Salt Lake Center
Tue 09:45:45 PM 41.0317 -109.2789 299° West 399 459 36,000  Level Salt Lake Center
Tue 09:46:46 PM 41.0836 -109.4044 299° West 402 463 36,000  Level Salt Lake Center
Tue 09:47:47 PM 41.1439 -109.5503 299° West 402 463 36,000  Level Salt Lake Center
Tue 09:48:49 PM 41.1956 -109.6764 299° West 403 464 36,000  Level Salt Lake Center
Tue 09:49:50 PM 41.2542 -109.8233 298° West 402 463 36,000  Level Salt Lake Center
Tue 09:50:51 PM 41.3047 -109.9481 298° West 399 459 36,000  Level Salt Lake Center
Tue 09:51:53 PM 41.3564 -110.0722 299° West 400 460 36,000  Level Salt Lake Center
Tue 09:52:54 PM 41.4147 -110.2192 298° West 401 461 36,000  Level Salt Lake Center
Tue 09:53:55 PM 41.4647 -110.3444 298° West 400 460 36,000  Level Salt Lake Center
Tue 09:54:57 PM 41.5219 -110.4883 298° West 395 455 36,000  Level Salt Lake Center
Tue 09:55:58 PM 41.5714 -110.6131 298° West 396 456 36,000  Level Salt Lake Center
Tue 09:56:59 PM 41.6211 -110.7392 298° West 400 460 36,000  Level Salt Lake Center
Tue 09:58:00 PM 41.6803 -110.8842 299° West 399 459 36,000  Level Salt Lake Center
Tue 09:59:02 PM 41.7281 -111.0100 297° West 395 455 36,000  Level Salt Lake Center
Tue 10:00:03 PM 41.7789 -111.1403 298° West 397 457 36,000  Level Salt Lake Center
Tue 10:01:04 PM 41.8297 -111.2725 297° West 401 461 36,000  Level Salt Lake Center
Tue 10:02:06 PM 41.8800 -111.4036 297° West 399 459 36,000  Level Salt Lake Center
Tue 10:03:07 PM 41.9325 -111.5369 298° West 404 465 36,000  Level Salt Lake Center
Tue 10:04:08 PM 41.9936 -111.6958 297° West 403 464 36,000  Level Salt Lake Center
Tue 10:05:09 PM 42.0431 -111.8289 297° West 401 461 36,000  Level Salt Lake Center
Tue 10:06:11 PM 42.0944 -111.9597 298° West 399 459 36,000  Level Salt Lake Center
Tue 10:07:12 PM 42.1444 -112.0939 297° West 401 461 36,000  Level Salt Lake Center
Tue 10:08:13 PM 42.1947 -112.2272 297° West 402 463 36,000  Level Salt Lake Center
Tue 10:09:15 PM 42.2447 -112.3617 297° West 403 464 36,000  Level Salt Lake Center
Tue 10:10:16 PM 42.2944 -112.4964 297° West 402 463 36,000  Level Salt Lake Center
Tue 10:11:17 PM 42.3456 -112.6311 297° West 404 465 36,000  Level Salt Lake Center
Tue 10:12:18 PM 42.3953 -112.7672 296° West 406 467 36,000  Level Salt Lake Center
Tue 10:13:20 PM 42.4544 -112.9300 296° West 403 464 36,000  Level Salt Lake Center
Tue 10:14:21 PM 42.5044 -113.0650 297° West 402 463 36,000  Level Salt Lake Center
Tue 10:15:22 PM 42.5544 -113.2019 296° West 406 467 36,000  Level Salt Lake Center
Tue 10:16:23 PM 42.6036 -113.3375 296° West 403 464 36,000  Level Salt Lake Center
Tue 10:17:25 PM 42.6525 -113.4731 296° West 400 460 36,000  Level Salt Lake Center
Tue 10:18:26 PM 42.7097 -113.6297 296° West 409 471 36,000  Level Salt Lake Center
Tue 10:19:27 PM 42.7625 -113.7581 299° West 407 468 36,000  Level Salt Lake Center
Tue 10:20:29 PM 42.8086 -113.8858 296° West 413 475 36,000  Level Salt Lake Center
Tue 10:21:30 PM 42.8742 -114.0458 299° West 403 464 36,000  Level Salt Lake Center
Tue 10:22:31 PM 42.9278 -114.1819 298° West 405 466 36,000  Level Salt Lake Center
Tue 10:23:33 PM 42.9794 -114.3053 300° West 414 476 36,000  Level Salt Lake Center
Tue 10:24:34 PM 43.0325 -114.4436 298° West 413 475 36,000  Level Salt Lake Center
Tue 10:25:35 PM 43.0864 -114.5808 298° West 412 474 36,000  Level Salt Lake Center
Tue 10:26:37 PM 43.1514 -114.7472 298° West 414 476 36,000  Level Salt Lake Center
Tue 10:27:38 PM 43.2042 -114.8856 298° West 412 474 36,000  Level Salt Lake Center
Tue 10:28:39 PM 43.2581 -115.0239 298° West 410 472 36,000  Level Salt Lake Center
Tue 10:29:41 PM 43.3094 -115.1628 297° West 409 471 36,000  Level Salt Lake Center
Tue 10:30:42 PM 43.3636 -115.2992 299° West 407 468 36,000  Level Salt Lake Center
Tue 10:31:43 PM 43.4164 -115.4433 297° West 419 482 36,000  Level Salt Lake Center
Tue 10:32:45 PM 43.4697 -115.5833 298° West 415 478 36,000  Level Salt Lake Center
Tue 10:33:46 PM 43.5214 -115.7233 297° West 412 474 36,000  Level Salt Lake Center
Tue 10:34:47 PM 43.5742 -115.8647 297° West 413 475 36,000  Level Salt Lake Center
Tue 10:35:48 PM 43.6261 -116.0058 297° West 412 474 36,000  Level Salt Lake Center
Tue 10:36:50 PM 43.6883 -116.1753 297° West 412 474 36,000  Level Salt Lake Center
Tue 10:37:51 PM 43.7406 -116.3167 297° West 412 474 36,000  Level Salt Lake Center
Tue 10:38:52 PM 43.7933 -116.4600 297° West 416 479 36,000  Level Salt Lake Center
Tue 10:39:54 PM 43.8450 -116.6028 297° West 415 478 36,000  Level Salt Lake Center
Tue 10:40:55 PM 43.8967 -116.7458 297° West 413 475 36,000  Level Salt Lake Center
Tue 10:41:56 PM 43.9486 -116.8889 297° West 414 476 36,000  Level Salt Lake Center
Tue 10:42:58 PM 43.9994 -117.0294 297° West 407 468 36,000  Level Salt Lake Center
Tue 10:43:59 PM 44.0508 -117.1747 296° West 417 480 36,000  Level Salt Lake Center
Tue 10:45:00 PM 44.1019 -117.3189 296° West 415 478 36,000  Level Salt Lake Center
Tue 10:46:01 PM 44.1536 -117.4628 297° West 416 479 36,000  Level Salt Lake Center
Tue 10:47:03 PM 44.2044 -117.6083 296° West 418 481 36,000  Level Salt Lake Center
Tue 10:48:04 PM 44.2544 -117.7542 296° West 416 479 36,000  Level Salt Lake Center
Tue 10:49:05 PM 44.3153 -117.9292 296° West 419 482 36,000  Level Salt Lake Center
Tue 10:50:07 PM 44.3656 -118.0733 296° West 415 478 36,000  Level Salt Lake Center
Tue 10:51:08 PM 44.4153 -118.2189 296° West 415 478 36,000  Level Salt Lake Center
Tue 10:52:09 PM 44.4647 -118.3664 295° West 418 481 36,000  Level Salt Lake Center
Tue 10:53:10 PM 44.5106 -118.5000 296° West 422 486 36,000  Level Salt Lake Center
Tue 10:54:12 PM 44.5703 -118.6783 295° West 422 486 36,000  Level Salt Lake Center
Tue 10:55:13 PM 44.6197 -118.8272 295° West 423 487 36,000  Level Salt Lake Center
Tue 10:56:14 PM 44.6700 -118.9756 296° West 422 486 36,000  Level Salt Lake Center
Tue 10:57:15 PM 44.7183 -119.1247 295° West 421 484 36,000  Level Salt Lake Center
Tue 10:58:17 PM 44.7675 -119.2739 295° West 422 486 36,000  Level Salt Lake Center
Tue 10:59:18 PM 44.8169 -119.4258 295° West 426 490 36,000  Level Salt Lake Center
Tue 11:00:19 PM 44.8661 -119.5756 295° West 425 489 36,000  Level Salt Lake Center
Tue 11:01:20 PM 44.9150 -119.7267 295° West 426 490 36,000 -195 Level Salt Lake Center
Tue 11:02:22 PM 44.9689 -119.8961 294° West 427 491 35,600 -686 Descending Salt Lake Center
Tue 11:03:40 PM 45.0292 -120.0825 295° West 436 502 34,400 -906 Descending Seattle Center
Tue 11:04:41 PM 45.0789 -120.2403 294° West 442 509 33,500 -1,082 Descending Seattle Center
Tue 11:05:42 PM 45.1383 -120.4308 294° West 444 511 32,200 -1,672 Descending Seattle Center
Tue 11:06:43 PM 45.1900 -120.5828 296° West 431 496 30,100 -2,164 Descending Seattle Center
Tue 11:07:44 PM 45.2472 -120.7272 299° West 421 484 27,800 -2,213 Descending Seattle Center
Tue 11:08:45 PM 45.3003 -120.8681 298° West 408 470 25,600 -2,132 Descending Seattle Center
Tue 11:09:45 PM 45.3528 -121.0053 299° West 397 457 23,500 -2,033 Descending Seattle Center
Tue 11:10:46 PM 45.4039 -121.1383 299° West 386 444 21,500 -1,918 Descending Seattle Center
Tue 11:11:47 PM 45.4419 -121.2772 291° West 376 433 19,600 -1,811 Descending Seattle Center
Tue 11:12:32 PM 45.4653 -121.3911 286° West 368 423 18,300 -1,579 Descending Seattle Center
Tue 11:12:44 PM 45.4719 -121.4225 287° West 364 419 18,100 -750 Descending Seattle Center
Tue 11:12:48 PM 45.4703 -121.4172 114° Southeast 369 425 18,100 -1,770 Level Seattle Center
Tue 11:13:45 PM 45.4983 -121.5564 286° West 352 405 16,300 -1,967 Descending Seattle Center
Tue 11:13:49 PM 45.4997 -121.5656 282° West 354 407 16,100 -1,300 Descending Seattle Center
Tue 11:14:45 PM 45.5239 -121.6878 286° West 344 396 15,000 -1,100 Descending Seattle Center
Tue 11:14:49 PM 45.5258 -121.6981 285° West 347 399 15,000 -1,180 Level Seattle Center
Tue 11:15:46 PM 45.5331 -121.8356 274° West 380 437 13,800 -1,279 Descending Seattle Center
Tue 11:15:50 PM 45.5342 -121.8456 279° West 378 435 13,700 -1,475 Descending Seattle Center
Tue 11:16:47 PM 45.5414 -121.9803 274° West 370 426 12,300 -1,475 Descending Seattle Center
Tue 11:16:51 PM 45.5444 -121.9894 295° West 367 422 12,200 -1,574 Descending Seattle Center
Tue 11:17:48 PM 45.5722 -122.1281 286° West 363 418 10,700 -1,574 Descending Seattle Center
Tue 11:17:52 PM 45.5767 -122.1375 304° West 364 419 10,600 -554 Descending Seattle Center
Tue 11:18:53 PM 45.6025 -122.2631 286° West 332 382 10,100 -1,026 Descending Seattle Center
Tue 11:19:49 PM 45.6231 -122.3667 286° West 286 329 8,600 -1,600 Descending Seattle Center
Tue 11:19:53 PM 45.6253 -122.3753 290° West 298 343 8,500 -1,477 Descending Seattle Center
Tue 11:20:54 PM 45.6492 -122.4847 287° West 291 335 7,000 -1,478 Descending Seattle Center
Tue 11:21:02 PM 45.6544 -122.4989 298° West 288 331 6,800 -1,475 Descending Seattle Center
Tue 11:21:55 PM 45.6861 -122.5828 298° West 282 325 5,500 -1,556 Descending Seattle Center
Tue 11:21:56 PM 45.6881 -122.5903 290° West 278 320 5,400 -689 Descending Seattle Center
Tue 11:22:56 PM 45.7203 -122.6831 296° West 259 298 4,800 -590 Descending Seattle Center
Tue 11:22:57 PM 45.7194 -122.6825 155° Southeast 249 287 4,800 -750 Level Seattle Center
Tue 11:23:52 PM 45.7450 -122.7556 297° West 211 243 4,100 -814 Descending Seattle Center
Tue 11:23:56 PM 45.7469 -122.7619 294° West 224 258 4,000 -1,900 Descending Seattle Center
Tue 11:24:52 PM 45.7194 -122.8125 232° Southwest 188 216 2,200 -1,869 Descending Seattle Center
Tue 11:24:57 PM 45.7158 -122.8122 177° South 198 228 2,100 -197 Descending Seattle Center
Tue 11:25:53 PM 45.6725 -122.8161 184° South 172 198 2,000 -98 Descending Seattle Center
Tue 11:25:58 PM 45.6708 -122.8108 114° Southeast 176 203 2,000  Level Seattle Center
Tue 11:26:58 PM 45.6472 -122.7564 122° Southeast 161 185 2,000  Level Seattle Center
Tue 11:26:59 PM 45.6478 -122.7581 295° West 150 173 2,000 -492 Level Seattle Center
Tue 11:27:59 PM 45.6286 -122.7083 119° Southeast 143 165 1,500 -537 Descending Seattle Center
Tue 11:28:06 PM 45.6258 -122.7022 123° Southeast 134 154 1,400 -700 Descending Seattle Center
Tue 11:28:59 PM 45.6117 -122.6656 119° Southeast 126 145 800 -627 Descending Seattle Center
Tue 11:29:13 PM 45.6081 -122.6569 121° Southeast 118 136 700 -590 Descending Seattle Center
Tue 11:30:00 PM 45.5964 -122.6256 118° Southeast 116 133 200 -638 Descending Seattle Center
Tue 11:33:00 PM 45.5887 -122.5969 139° Southeast  Level Estimated
Tue 11:40:00 PM 45.5887 -122.5969 139° Southeast  Level Estimated

Login

Don't have an account? Register now (free) for customized features, flight alerts, and more!